sensor_id;sensor_type;location;lat;lon;timestamp;pressure;altitude;pressure_sealevel;temperature;humidity
54978;BME280;40873;47.522;19.106;2023-07-20T00:02:26;99616.94;;;23.49;87.39
54978;BME280;40873;47.522;19.106;2023-07-20T00:04:53;99611.78;;;23.48;89.28
54978;BME280;40873;47.522;19.106;2023-07-20T00:07:20;99606.06;;;23.36;89.60
54978;BME280;40873;47.522;19.106;2023-07-20T00:09:47;99604.03;;;23.38;89.33
54978;BME280;40873;47.522;19.106;2023-07-20T00:12:14;99615.38;;;23.34;89.43
54978;BME280;40873;47.522;19.106;2023-07-20T00:14:41;99618.47;;;23.31;90.44
54978;BME280;40873;47.522;19.106;2023-07-20T00:17:08;99620.81;;;23.19;91.42
54978;BME280;40873;47.522;19.106;2023-07-20T00:19:36;99622.88;;;23.17;90.44
54978;BME280;40873;47.522;19.106;2023-07-20T00:22:03;99615.22;;;23.20;89.73
54978;BME280;40873;47.522;19.106;2023-07-20T00:24:31;99601.34;;;23.17;89.99
54978;BME280;40873;47.522;19.106;2023-07-20T00:26:59;99606.13;;;23.21;89.49
54978;BME280;40873;47.522;19.106;2023-07-20T00:29:28;99599.28;;;23.19;90.38
54978;BME280;40873;47.522;19.106;2023-07-20T00:31:55;99600.31;;;23.18;90.69
54978;BME280;40873;47.522;19.106;2023-07-20T00:34:23;99598.59;;;23.10;91.27
54978;BME280;40873;47.522;19.106;2023-07-20T00:36:50;99606.59;;;23.04;91.46
54978;BME280;40873;47.522;19.106;2023-07-20T00:39:17;99600.53;;;23.02;90.86
54978;BME280;40873;47.522;19.106;2023-07-20T00:41:44;99612.59;;;23.06;90.96
54978;BME280;40873;47.522;19.106;2023-07-20T00:44:11;99617.72;;;23.01;91.96
54978;BME280;40873;47.522;19.106;2023-07-20T00:46:39;99613.97;;;22.95;91.41
54978;BME280;40873;47.522;19.106;2023-07-20T00:49:08;99613.97;;;22.95;91.59
54978;BME280;40873;47.522;19.106;2023-07-20T00:51:35;99609.13;;;22.90;91.72
54978;BME280;40873;47.522;19.106;2023-07-20T00:54:03;99596.25;;;22.86;92.08
54978;BME280;40873;47.522;19.106;2023-07-20T00:56:30;99597.91;;;22.87;92.34
54978;BME280;40873;47.522;19.106;2023-07-20T00:58:57;99594.03;;;22.89;92.88
54978;BME280;40873;47.522;19.106;2023-07-20T01:01:24;99581.94;;;22.85;93.03
54978;BME280;40873;47.522;19.106;2023-07-20T01:03:51;99577.78;;;22.83;93.87
54978;BME280;40873;47.522;19.106;2023-07-20T01:11:38;99575.47;;;22.80;94.68
54978;BME280;40873;47.522;19.106;2023-07-20T01:14:06;99565.38;;;22.82;95.63
54978;BME280;40873;47.522;19.106;2023-07-20T01:16:33;99574.81;;;22.78;94.85
54978;BME280;40873;47.522;19.106;2023-07-20T01:19:01;99563.88;;;22.79;95.41
54978;BME280;40873;47.522;19.106;2023-07-20T01:21:40;99561.84;;;22.81;96.38
54978;BME280;40873;47.522;19.106;2023-07-20T01:30:07;99581.16;;;22.70;96.84
54978;BME280;40873;47.522;19.106;2023-07-20T01:32:39;99582.25;;;22.76;94.96
54978;BME280;40873;47.522;19.106;2023-07-20T01:35:08;99565.09;;;22.77;95.85
54978;BME280;40873;47.522;19.106;2023-07-20T01:37:38;99578.75;;;22.75;96.93
54978;BME280;40873;47.522;19.106;2023-07-20T01:40:06;99578.25;;;22.71;95.69
54978;BME280;40873;47.522;19.106;2023-07-20T01:42:34;99581.16;;;22.70;94.84
54978;BME280;40873;47.522;19.106;2023-07-20T01:45:01;99599.78;;;22.71;94.08
54978;BME280;40873;47.522;19.106;2023-07-20T01:47:28;99591.34;;;22.75;92.66
54978;BME280;40873;47.522;19.106;2023-07-20T01:49:55;99589.09;;;22.78;93.45
54978;BME280;40873;47.522;19.106;2023-07-20T01:52:22;99594.13;;;22.81;94.32
54978;BME280;40873;47.522;19.106;2023-07-20T01:54:49;99590.88;;;22.86;92.96
54978;BME280;40873;47.522;19.106;2023-07-20T01:59:43;99591.88;;;22.85;93.16
54978;BME280;40873;47.522;19.106;2023-07-20T02:02:10;99597.63;;;22.82;93.09
54978;BME280;40873;47.522;19.106;2023-07-20T02:04:37;99599.75;;;22.86;93.51
54978;BME280;40873;47.522;19.106;2023-07-20T02:07:04;99607.66;;;22.88;92.28
54978;BME280;40873;47.522;19.106;2023-07-20T02:09:31;99602.09;;;22.89;92.49
54978;BME280;40873;47.522;19.106;2023-07-20T02:11:58;99605.97;;;22.87;92.43
54978;BME280;40873;47.522;19.106;2023-07-20T02:14:25;99605.69;;;22.82;93.66
54978;BME280;40873;47.522;19.106;2023-07-20T02:16:52;99619.50;;;22.79;92.60
54978;BME280;40873;47.522;19.106;2023-07-20T02:19:21;99612.06;;;22.81;93.53
54978;BME280;40873;47.522;19.106;2023-07-20T02:21:48;99610.16;;;22.89;91.31
54978;BME280;40873;47.522;19.106;2023-07-20T02:24:15;99613.28;;;22.93;94.08
54978;BME280;40873;47.522;19.106;2023-07-20T02:26:42;99622.94;;;22.87;94.24
54978;BME280;40873;47.522;19.106;2023-07-20T02:29:09;99613.78;;;22.82;94.62
54978;BME280;40873;47.522;19.106;2023-07-20T02:31:38;99621.56;;;22.77;96.21
54978;BME280;40873;47.522;19.106;2023-07-20T02:34:06;99616.53;;;22.74;95.88
54978;BME280;40873;47.522;19.106;2023-07-20T02:36:34;99620.47;;;22.71;96.93
54978;BME280;40873;47.522;19.106;2023-07-20T02:39:01;99611.75;;;22.69;95.65
54978;BME280;40873;47.522;19.106;2023-07-20T02:41:32;99617.97;;;22.69;97.07
54978;BME280;40873;47.522;19.106;2023-07-20T02:44:00;99618.16;;;22.68;97.51
54978;BME280;40873;47.522;19.106;2023-07-20T02:46:28;99627.81;;;22.62;98.81
54978;BME280;40873;47.522;19.106;2023-07-20T02:48:57;99619.25;;;22.59;98.81
54978;BME280;40873;47.522;19.106;2023-07-20T02:51:24;99617.81;;;22.56;97.76
54978;BME280;40873;47.522;19.106;2023-07-20T02:53:51;99616.06;;;22.49;99.42
54978;BME280;40873;47.522;19.106;2023-07-20T02:56:18;99626.31;;;22.45;98.89
54978;BME280;40873;47.522;19.106;2023-07-20T02:58:45;99623.47;;;22.47;96.94
54978;BME280;40873;47.522;19.106;2023-07-20T03:01:12;99627.16;;;22.46;97.11
54978;BME280;40873;47.522;19.106;2023-07-20T03:03:44;99627.34;;;22.44;96.17
54978;BME280;40873;47.522;19.106;2023-07-20T03:06:15;99637.28;;;22.43;96.68
54978;BME280;40873;47.522;19.106;2023-07-20T03:08:43;99637.06;;;22.45;96.37
54978;BME280;40873;47.522;19.106;2023-07-20T03:11:14;99633.75;;;22.43;96.40
54978;BME280;40873;47.522;19.106;2023-07-20T03:13:45;99638.28;;;22.42;95.93
54978;BME280;40873;47.522;19.106;2023-07-20T03:16:13;99645.44;;;22.35;96.00
54978;BME280;40873;47.522;19.106;2023-07-20T03:18:42;99642.94;;;22.34;95.54
54978;BME280;40873;47.522;19.106;2023-07-20T03:21:09;99653.22;;;22.30;97.90
54978;BME280;40873;47.522;19.106;2023-07-20T03:23:39;99653.41;;;22.29;97.10
54978;BME280;40873;47.522;19.106;2023-07-20T03:26:07;99655.78;;;22.24;100.00
54978;BME280;40873;47.522;19.106;2023-07-20T03:28:37;99658.38;;;22.17;100.00
54978;BME280;40873;47.522;19.106;2023-07-20T03:31:05;99668.19;;;22.10;100.00
54978;BME280;40873;47.522;19.106;2023-07-20T03:33:32;99671.22;;;22.07;100.00
54978;BME280;40873;47.522;19.106;2023-07-20T03:36:00;99667.03;;;22.04;98.91
54978;BME280;40873;47.522;19.106;2023-07-20T03:38:27;99668.53;;;22.07;97.99
54978;BME280;40873;47.522;19.106;2023-07-20T03:40:59;99677.56;;;22.14;96.97
54978;BME280;40873;47.522;19.106;2023-07-20T03:43:27;99680.06;;;22.15;97.14
54978;BME280;40873;47.522;19.106;2023-07-20T03:45:55;99684.59;;;22.15;96.13
54978;BME280;40873;47.522;19.106;2023-07-20T03:48:24;99681.53;;;22.18;94.73
54978;BME280;40873;47.522;19.106;2023-07-20T03:50:52;99690.47;;;22.19;93.55
54978;BME280;40873;47.522;19.106;2023-07-20T03:53:20;99690.28;;;22.20;93.13
54978;BME280;40873;47.522;19.106;2023-07-20T03:55:48;99692.97;;;22.20;91.16
54978;BME280;40873;47.522;19.106;2023-07-20T03:58:16;99693.41;;;22.24;92.09
54978;BME280;40873;47.522;19.106;2023-07-20T04:00:48;99693.41;;;22.24;89.24
54978;BME280;40873;47.522;19.106;2023-07-20T04:03:18;99688.88;;;22.24;91.31
54978;BME280;40873;47.522;19.106;2023-07-20T04:05:45;99684.81;;;22.28;89.71
54978;BME280;40873;47.522;19.106;2023-07-20T04:08:13;99689.66;;;22.33;90.57
54978;BME280;40873;47.522;19.106;2023-07-20T04:10:43;99684.81;;;22.28;90.32
54978;BME280;40873;47.522;19.106;2023-07-20T04:13:11;99687.59;;;22.35;90.68
54978;BME280;40873;47.522;19.106;2023-07-20T04:15:38;99687.41;;;22.36;89.84
54978;BME280;40873;47.522;19.106;2023-07-20T04:18:06;99689.25;;;22.36;90.01
54978;BME280;40873;47.522;19.106;2023-07-20T04:20:33;99690.09;;;22.36;88.72
54978;BME280;40873;47.522;19.106;2023-07-20T04:23:00;99683.06;;;22.35;88.02
54978;BME280;40873;47.522;19.106;2023-07-20T04:25:27;99676.31;;;22.39;86.19
54978;BME280;40873;47.522;19.106;2023-07-20T04:27:54;99675.09;;;22.42;87.74
54978;BME280;40873;47.522;19.106;2023-07-20T04:30:22;99680.06;;;22.45;88.04
54978;BME280;40873;47.522;19.106;2023-07-20T04:32:49;99676.56;;;22.44;86.46
54978;BME280;40873;47.522;19.106;2023-07-20T04:36:10;99672.00;;;22.45;88.27
54978;BME280;40873;47.522;19.106;2023-07-20T04:38:30;99672.31;;;22.50;86.73
54978;BME280;40873;47.522;19.106;2023-07-20T04:40:57;99677.97;;;22.55;86.06
54978;BME280;40873;47.522;19.106;2023-07-20T04:43:24;99674.69;;;22.60;86.39
54978;BME280;40873;47.522;19.106;2023-07-20T04:45:51;99679.16;;;22.67;85.63
54978;BME280;40873;47.522;19.106;2023-07-20T04:48:18;99672.56;;;22.70;84.53
54978;BME280;40873;47.522;19.106;2023-07-20T04:50:45;99666.81;;;22.73;84.91
54978;BME280;40873;47.522;19.106;2023-07-20T04:53:13;99678.66;;;22.79;83.72
54978;BME280;40873;47.522;19.106;2023-07-20T04:55:40;99674.91;;;22.88;83.67
54978;BME280;40873;47.522;19.106;2023-07-20T04:58:07;99682.13;;;22.87;81.92
54978;BME280;40873;47.522;19.106;2023-07-20T05:00:34;99676.91;;;23.01;83.01
54978;BME280;40873;47.522;19.106;2023-07-20T05:03:02;99679.88;;;23.06;78.68
54978;BME280;40873;47.522;19.106;2023-07-20T05:05:30;99683.84;;;23.10;77.85
54978;BME280;40873;47.522;19.106;2023-07-20T05:07:57;99677.25;;;23.12;76.98
54978;BME280;40873;47.522;19.106;2023-07-20T05:10:24;99682.06;;;23.17;77.83
54978;BME280;40873;47.522;19.106;2023-07-20T05:12:51;99689.81;;;23.27;76.53
54978;BME280;40873;47.522;19.106;2023-07-20T05:15:18;99679.19;;;23.40;76.04
54978;BME280;40873;47.522;19.106;2023-07-20T05:17:45;99687.72;;;23.43;77.46
54978;BME280;40873;47.522;19.106;2023-07-20T05:20:13;99689.28;;;23.52;75.15
54978;BME280;40873;47.522;19.106;2023-07-20T05:22:40;99686.31;;;23.47;73.83
54978;BME280;40873;47.522;19.106;2023-07-20T05:25:08;99682.78;;;23.47;74.33
54978;BME280;40873;47.522;19.106;2023-07-20T05:27:39;99682.66;;;23.55;74.09
54978;BME280;40873;47.522;19.106;2023-07-20T05:30:06;99682.91;;;23.60;72.90
54978;BME280;40873;47.522;19.106;2023-07-20T05:32:34;99682.59;;;23.48;72.44
54978;BME280;40873;47.522;19.106;2023-07-20T05:35:01;99681.13;;;23.46;71.93
54978;BME280;40873;47.522;19.106;2023-07-20T05:37:28;99667.88;;;23.44;71.63
54978;BME280;40873;47.522;19.106;2023-07-20T05:39:55;99679.28;;;23.68;70.89
54978;BME280;40873;47.522;19.106;2023-07-20T05:42:23;99676.59;;;23.68;69.61
54978;BME280;40873;47.522;19.106;2023-07-20T05:44:50;99684.22;;;23.86;69.14
54978;BME280;40873;47.522;19.106;2023-07-20T05:47:19;99693.41;;;23.98;68.59
54978;BME280;40873;47.522;19.106;2023-07-20T05:49:47;99697.66;;;24.07;68.53
54978;BME280;40873;47.522;19.106;2023-07-20T05:52:14;99696.88;;;24.13;68.46
54978;BME280;40873;47.522;19.106;2023-07-20T05:54:41;99706.06;;;24.25;68.12
54978;BME280;40873;47.522;19.106;2023-07-20T05:57:08;99714.78;;;24.49;69.08
54978;BME280;40873;47.522;19.106;2023-07-20T05:59:35;99698.22;;;24.58;66.13
54978;BME280;40873;47.522;19.106;2023-07-20T06:02:02;99700.63;;;24.81;64.97
54978;BME280;40873;47.522;19.106;2023-07-20T06:04:29;99699.38;;;24.77;65.93
54978;BME280;40873;47.522;19.106;2023-07-20T06:06:56;99705.09;;;24.68;64.79
54978;BME280;40873;47.522;19.106;2023-07-20T06:09:23;99699.16;;;24.79;65.52
54978;BME280;40873;47.522;19.106;2023-07-20T06:11:50;99702.28;;;24.76;63.91
54978;BME280;40873;47.522;19.106;2023-07-20T06:14:17;99702.44;;;24.74;64.23
54978;BME280;40873;47.522;19.106;2023-07-20T06:16:45;99699.34;;;24.71;64.16
54978;BME280;40873;47.522;19.106;2023-07-20T06:19:12;99706.81;;;24.75;64.19
54978;BME280;40873;47.522;19.106;2023-07-20T06:21:39;99712.41;;;24.74;64.96
54978;BME280;40873;47.522;19.106;2023-07-20T06:24:06;99711.75;;;24.65;65.93
54978;BME280;40873;47.522;19.106;2023-07-20T06:26:33;99716.38;;;24.78;65.65
54978;BME280;40873;47.522;19.106;2023-07-20T06:29:06;99711.38;;;24.75;66.15
54978;BME280;40873;47.522;19.106;2023-07-20T06:31:34;99721.59;;;24.86;65.77
54978;BME280;40873;47.522;19.106;2023-07-20T06:34:02;99725.81;;;25.02;66.27
54978;BME280;40873;47.522;19.106;2023-07-20T06:36:29;99732.59;;;25.26;65.81
54978;BME280;40873;47.522;19.106;2023-07-20T06:38:56;99731.69;;;25.05;65.26
54978;BME280;40873;47.522;19.106;2023-07-20T06:41:26;99735.84;;;25.08;63.95
54978;BME280;40873;47.522;19.106;2023-07-20T06:43:56;99729.41;;;25.09;64.67
54978;BME280;40873;47.522;19.106;2023-07-20T06:46:25;99739.91;;;25.32;64.20
54978;BME280;40873;47.522;19.106;2023-07-20T06:48:53;99736.81;;;25.41;64.26
54978;BME280;40873;47.522;19.106;2023-07-20T06:51:24;99740.53;;;25.34;63.52
54978;BME280;40873;47.522;19.106;2023-07-20T06:53:52;99751.34;;;25.40;62.66
54978;BME280;40873;47.522;19.106;2023-07-20T06:56:19;99744.84;;;25.22;62.71
54978;BME280;40873;47.522;19.106;2023-07-20T06:58:50;99762.50;;;25.31;62.92
54978;BME280;40873;47.522;19.106;2023-07-20T07:01:17;99759.44;;;25.40;63.54
54978;BME280;40873;47.522;19.106;2023-07-20T07:03:44;99759.69;;;25.46;64.24
54978;BME280;40873;47.522;19.106;2023-07-20T07:06:11;99769.63;;;25.45;61.88
54978;BME280;40873;47.522;19.106;2023-07-20T07:08:38;99757.78;;;25.39;62.64
54978;BME280;40873;47.522;19.106;2023-07-20T07:11:05;99761.16;;;25.55;62.33
54978;BME280;40873;47.522;19.106;2023-07-20T07:13:32;99766.56;;;25.61;60.64
54978;BME280;40873;47.522;19.106;2023-07-20T07:15:59;99763.94;;;25.81;58.98
54978;BME280;40873;47.522;19.106;2023-07-20T07:18:26;99765.31;;;25.70;58.77
54978;BME280;40873;47.522;19.106;2023-07-20T07:20:53;99757.63;;;25.61;58.84
54978;BME280;40873;47.522;19.106;2023-07-20T07:23:20;99760.53;;;25.66;60.70
54978;BME280;40873;47.522;19.106;2023-07-20T07:25:48;99763.09;;;25.74;58.80
54978;BME280;40873;47.522;19.106;2023-07-20T07:28:15;99765.16;;;25.79;60.07
54978;BME280;40873;47.522;19.106;2023-07-20T07:30:42;99769.34;;;25.88;58.58
54978;BME280;40873;47.522;19.106;2023-07-20T07:33:09;99763.13;;;25.87;57.71
54978;BME280;40873;47.522;19.106;2023-07-20T07:35:37;99761.66;;;26.05;57.29
54978;BME280;40873;47.522;19.106;2023-07-20T07:38:04;99759.19;;;26.16;58.06
54978;BME280;40873;47.522;19.106;2023-07-20T07:40:53;99762.91;;;26.35;57.10
54978;BME280;40873;47.522;19.106;2023-07-20T07:43:20;99769.78;;;26.38;55.90
54978;BME280;40873;47.522;19.106;2023-07-20T07:45:47;99776.22;;;26.23;55.16
54978;BME280;40873;47.522;19.106;2023-07-20T07:48:14;99773.75;;;26.29;54.31
54978;BME280;40873;47.522;19.106;2023-07-20T07:50:41;99779.16;;;26.15;52.66
54978;BME280;40873;47.522;19.106;2023-07-20T07:53:08;99769.56;;;26.13;52.08
54978;BME280;40873;47.522;19.106;2023-07-20T07:55:36;99769.16;;;26.16;52.37
54978;BME280;40873;47.522;19.106;2023-07-20T07:58:03;99768.53;;;26.14;50.74
54978;BME280;40873;47.522;19.106;2023-07-20T08:00:30;99766.03;;;26.32;52.24
54978;BME280;40873;47.522;19.106;2023-07-20T08:02:57;99777.09;;;26.50;52.36
54978;BME280;40873;47.522;19.106;2023-07-20T08:05:25;99783.47;;;26.76;51.74
54978;BME280;40873;47.522;19.106;2023-07-20T08:07:53;99786.56;;;26.93;50.09
54978;BME280;40873;47.522;19.106;2023-07-20T08:10:20;99789.47;;;26.98;48.92
54978;BME280;40873;47.522;19.106;2023-07-20T08:12:47;99796.56;;;26.99;49.35
54978;BME280;40873;47.522;19.106;2023-07-20T08:15:14;99792.38;;;26.96;47.03
54978;BME280;40873;47.522;19.106;2023-07-20T08:17:41;99792.59;;;27.01;47.13
54978;BME280;40873;47.522;19.106;2023-07-20T08:20:12;99798.00;;;27.08;47.67
54978;BME280;40873;47.522;19.106;2023-07-20T08:22:40;99794.00;;;27.17;48.95
54978;BME280;40873;47.522;19.106;2023-07-20T08:25:08;99792.94;;;27.25;47.83
54978;BME280;40873;47.522;19.106;2023-07-20T08:27:36;99798.94;;;27.40;48.23
54978;BME280;40873;47.522;19.106;2023-07-20T08:30:04;99793.53;;;27.40;48.49
54978;BME280;40873;47.522;19.106;2023-07-20T08:32:32;99794.34;;;27.41;47.10
54978;BME280;40873;47.522;19.106;2023-07-20T08:35:00;99788.97;;;27.34;48.65
54978;BME280;40873;47.522;19.106;2023-07-20T08:37:27;99795.69;;;27.63;48.83
54978;BME280;40873;47.522;19.106;2023-07-20T08:39:54;99794.94;;;27.88;47.98
54978;BME280;40873;47.522;19.106;2023-07-20T08:42:22;99791.03;;;27.83;46.90
54978;BME280;40873;47.522;19.106;2023-07-20T08:44:51;99784.78;;;28.08;45.75
54978;BME280;40873;47.522;19.106;2023-07-20T08:47:20;99802.66;;;28.16;45.23
54978;BME280;40873;47.522;19.106;2023-07-20T08:49:50;99793.59;;;28.28;45.87
54978;BME280;40873;47.522;19.106;2023-07-20T08:52:18;99791.09;;;28.33;45.42
54978;BME280;40873;47.522;19.106;2023-07-20T08:54:46;99798.94;;;28.42;45.36
54978;BME280;40873;47.522;19.106;2023-07-20T08:57:13;99805.78;;;28.44;45.32
54978;BME280;40873;47.522;19.106;2023-07-20T08:59:42;99811.13;;;28.32;42.74
54978;BME280;40873;47.522;19.106;2023-07-20T09:02:15;99810.41;;;28.44;44.27
54978;BME280;40873;47.522;19.106;2023-07-20T09:04:45;99812.41;;;28.23;41.59
54978;BME280;40873;47.522;19.106;2023-07-20T09:07:13;99822.56;;;28.09;41.12
54978;BME280;40873;47.522;19.106;2023-07-20T09:09:41;99821.81;;;28.21;40.88
54978;BME280;40873;47.522;19.106;2023-07-20T09:12:15;99820.28;;;28.38;41.04
54978;BME280;40873;47.522;19.106;2023-07-20T09:14:43;99820.50;;;28.30;41.69
54978;BME280;40873;47.522;19.106;2023-07-20T09:17:14;99823.00;;;28.38;43.12
54978;BME280;40873;47.522;19.106;2023-07-20T09:19:47;99816.75;;;28.56;42.44
54978;BME280;40873;47.522;19.106;2023-07-20T09:22:15;99819.38;;;28.94;41.08
54978;BME280;40873;47.522;19.106;2023-07-20T09:24:42;99822.84;;;29.01;40.94
54978;BME280;40873;47.522;19.106;2023-07-20T09:27:10;99822.81;;;29.38;42.85
54978;BME280;40873;47.522;19.106;2023-07-20T09:29:48;99821.47;;;29.10;41.09
54978;BME280;40873;47.522;19.106;2023-07-20T09:32:20;99822.91;;;28.70;41.90
54978;BME280;40873;47.522;19.106;2023-07-20T09:34:50;99827.63;;;28.31;43.46
54978;BME280;40873;47.522;19.106;2023-07-20T09:37:22;99828.31;;;28.20;44.32
54978;BME280;40873;47.522;19.106;2023-07-20T09:39:53;99822.16;;;27.68;43.56
54978;BME280;40873;47.522;19.106;2023-07-20T09:42:23;99831.75;;;27.64;44.67
54978;BME280;40873;47.522;19.106;2023-07-20T09:44:55;99819.06;;;27.57;46.30
54978;BME280;40873;47.522;19.106;2023-07-20T09:47:23;99820.03;;;27.76;44.08
54978;BME280;40873;47.522;19.106;2023-07-20T09:49:58;99820.19;;;27.81;46.23
54978;BME280;40873;47.522;19.106;2023-07-20T09:52:30;99822.75;;;27.76;44.60
54978;BME280;40873;47.522;19.106;2023-07-20T09:55:00;99812.41;;;27.53;44.71
54978;BME280;40873;47.522;19.106;2023-07-20T09:57:28;99810.63;;;27.34;46.61
54978;BME280;40873;47.522;19.106;2023-07-20T09:59:56;99821.50;;;27.21;45.79
54978;BME280;40873;47.522;19.106;2023-07-20T10:02:46;99822.94;;;27.30;47.36
54978;BME280;40873;47.522;19.106;2023-07-20T10:05:14;99810.59;;;27.41;45.52
54978;BME280;40873;47.522;19.106;2023-07-20T10:07:48;99822.56;;;27.65;44.91
54978;BME280;40873;47.522;19.106;2023-07-20T10:10:16;99826.41;;;28.20;44.33
54978;BME280;40873;47.522;19.106;2023-07-20T10:12:47;99827.56;;;28.62;41.95
54978;BME280;40873;47.522;19.106;2023-07-20T10:15:24;99831.31;;;28.36;42.99
54978;BME280;40873;47.522;19.106;2023-07-20T10:18:03;99817.00;;;27.98;43.62
54978;BME280;40873;47.522;19.106;2023-07-20T10:20:35;99816.28;;;28.40;44.51
54978;BME280;40873;47.522;19.106;2023-07-20T10:23:04;99818.66;;;28.30;45.43
54978;BME280;40873;47.522;19.106;2023-07-20T10:25:32;99818.66;;;28.30;45.29
54978;BME280;40873;47.522;19.106;2023-07-20T10:28:07;99820.16;;;28.20;43.73
54978;BME280;40873;47.522;19.106;2023-07-20T10:30:35;99820.69;;;28.35;44.93
54978;BME280;40873;47.522;19.106;2023-07-20T10:33:03;99812.81;;;28.77;42.93
54978;BME280;40873;47.522;19.106;2023-07-20T10:35:50;99818.41;;;28.57;42.31
54978;BME280;40873;47.522;19.106;2023-07-20T10:38:17;99810.03;;;28.83;43.39
54978;BME280;40873;47.522;19.106;2023-07-20T10:40:54;99809.03;;;28.78;43.15
54978;BME280;40873;47.522;19.106;2023-07-20T10:43:22;99805.31;;;28.54;41.61
54978;BME280;40873;47.522;19.106;2023-07-20T10:45:52;99801.44;;;28.43;41.01
54978;BME280;40873;47.522;19.106;2023-07-20T10:48:24;99820.94;;;28.33;43.01
54978;BME280;40873;47.522;19.106;2023-07-20T10:53:37;99810.97;;;28.21;41.70
54978;BME280;40873;47.522;19.106;2023-07-20T10:56:19;99809.88;;;28.03;42.13
54978;BME280;40873;47.522;19.106;2023-07-20T10:58:47;99823.97;;;27.80;40.96
54978;BME280;40873;47.522;19.106;2023-07-20T11:01:17;99824.53;;;27.96;41.41
54978;BME280;40873;47.522;19.106;2023-07-20T11:03:49;99816.16;;;27.97;41.01
54978;BME280;40873;47.522;19.106;2023-07-20T11:09:09;99818.09;;;27.90;40.94
54978;BME280;40873;47.522;19.106;2023-07-20T11:11:47;99812.69;;;27.83;42.89
54978;BME280;40873;47.522;19.106;2023-07-20T11:14:25;99806.28;;;28.09;42.34
54978;BME280;40873;47.522;19.106;2023-07-20T11:16:53;99810.06;;;28.33;40.13
54978;BME280;40873;47.522;19.106;2023-07-20T11:19:23;99815.75;;;28.50;40.36
54978;BME280;40873;47.522;19.106;2023-07-20T11:21:57;99807.38;;;29.02;39.19
54978;BME280;40873;47.522;19.106;2023-07-20T11:24:27;99797.16;;;29.34;38.50
54978;BME280;40873;47.522;19.106;2023-07-20T11:26:54;99803.34;;;29.59;39.69
54978;BME280;40873;47.522;19.106;2023-07-20T11:29:23;99814.63;;;29.74;38.25
54978;BME280;40873;47.522;19.106;2023-07-20T11:31:59;99796.41;;;29.27;38.74
54978;BME280;40873;47.522;19.106;2023-07-20T11:34:31;99803.06;;;29.12;40.14
54978;BME280;40873;47.522;19.106;2023-07-20T11:36:58;99800.34;;;28.94;40.76
54978;BME280;40873;47.522;19.106;2023-07-20T11:39:28;99809.53;;;29.30;38.24
54978;BME280;40873;47.522;19.106;2023-07-20T11:41:56;99806.09;;;29.23;37.73
54978;BME280;40873;47.522;19.106;2023-07-20T11:44:26;99827.66;;;29.17;38.25
54978;BME280;40873;47.522;19.106;2023-07-20T11:49:42;99811.97;;;29.56;36.05
54978;BME280;40873;47.522;19.106;2023-07-20T11:52:12;99814.38;;;29.64;36.60
54978;BME280;40873;47.522;19.106;2023-07-20T11:54:42;99801.19;;;29.80;36.73
54978;BME280;40873;47.522;19.106;2023-07-20T11:57:21;99809.53;;;30.08;35.97
54978;BME280;40873;47.522;19.106;2023-07-20T12:02:26;99797.09;;;30.54;35.04
54978;BME280;40873;47.522;19.106;2023-07-20T12:04:54;99786.09;;;30.96;35.96
54978;BME280;40873;47.522;19.106;2023-07-20T12:07:22;99785.91;;;31.26;35.20
54978;BME280;40873;47.522;19.106;2023-07-20T12:10:08;99791.88;;;30.99;34.22
54978;BME280;40873;47.522;19.106;2023-07-20T12:12:39;99782.28;;;30.97;34.13
54978;BME280;40873;47.522;19.106;2023-07-20T12:17:45;99788.69;;;30.91;34.93
54978;BME280;40873;47.522;19.106;2023-07-20T12:20:13;99788.81;;;31.48;33.78
54978;BME280;40873;47.522;19.106;2023-07-20T12:22:43;99783.63;;;31.63;35.76
54978;BME280;40873;47.522;19.106;2023-07-20T12:25:10;99774.97;;;31.95;33.57
54978;BME280;40873;47.522;19.106;2023-07-20T12:27:37;99773.56;;;31.35;33.18
54978;BME280;40873;47.522;19.106;2023-07-20T12:30:08;99778.13;;;31.06;33.48
54978;BME280;40873;47.522;19.106;2023-07-20T12:32:35;99782.47;;;31.30;33.49
54978;BME280;40873;47.522;19.106;2023-07-20T12:35:02;99775.97;;;31.88;33.08
54978;BME280;40873;47.522;19.106;2023-07-20T12:37:30;99784.31;;;31.99;31.60
54978;BME280;40873;47.522;19.106;2023-07-20T12:39:57;99777.63;;;32.23;31.41
54978;BME280;40873;47.522;19.106;2023-07-20T12:42:24;99785.88;;;31.95;29.41
54978;BME280;40873;47.522;19.106;2023-07-20T12:44:51;99782.59;;;32.26;29.77
54978;BME280;40873;47.522;19.106;2023-07-20T12:47:19;99778.97;;;32.37;30.13
54978;BME280;40873;47.522;19.106;2023-07-20T12:49:46;99774.56;;;32.03;29.10
54978;BME280;40873;47.522;19.106;2023-07-20T12:52:13;99787.84;;;31.82;30.22
54978;BME280;40873;47.522;19.106;2023-07-20T12:54:40;99782.09;;;31.67;28.88
54978;BME280;40873;47.522;19.106;2023-07-20T12:57:07;99782.25;;;31.60;29.72
54978;BME280;40873;47.522;19.106;2023-07-20T12:59:37;99777.72;;;31.95;29.75
54978;BME280;40873;47.522;19.106;2023-07-20T13:02:05;99806.94;;;31.42;30.08
54978;BME280;40873;47.522;19.106;2023-07-20T13:04:32;99779.50;;;31.60;31.36
54978;BME280;40873;47.522;19.106;2023-07-20T13:06:59;99780.75;;;31.81;30.86
54978;BME280;40873;47.522;19.106;2023-07-20T13:09:27;99775.84;;;31.55;32.14
54978;BME280;40873;47.522;19.106;2023-07-20T13:11:54;99774.41;;;31.92;30.63
54978;BME280;40873;47.522;19.106;2023-07-20T13:14:21;99780.69;;;32.10;30.40
54978;BME280;40873;47.522;19.106;2023-07-20T13:16:48;99779.66;;;31.82;30.22
54978;BME280;40873;47.522;19.106;2023-07-20T13:19:15;99769.94;;;31.58;28.96
54978;BME280;40873;47.522;19.106;2023-07-20T13:21:42;99772.06;;;31.84;29.09
54978;BME280;40873;47.522;19.106;2023-07-20T13:24:09;99791.91;;;31.97;29.23
54978;BME280;40873;47.522;19.106;2023-07-20T13:26:37;99769.25;;;31.51;29.84